createdAt,value
2022-08-26T00:00:21.489Z,25.80
2022-08-26T00:02:49.856Z,25.80
2022-08-26T00:05:18.665Z,25.80
2022-08-26T00:07:47.514Z,25.80
2022-08-26T00:10:16.359Z,25.80
2022-08-26T00:12:46.084Z,25.80
2022-08-26T00:15:17.632Z,25.70
2022-08-26T00:17:47.651Z,25.70
2022-08-26T00:20:19.598Z,25.70
2022-08-26T00:22:48.184Z,25.70
2022-08-26T00:25:18.171Z,25.70
2022-08-26T00:27:47.419Z,25.60
2022-08-26T00:30:24.153Z,25.60
2022-08-26T00:32:56.863Z,25.60
2022-08-26T00:35:26.448Z,25.60
2022-08-26T00:37:57.224Z,25.60
2022-08-26T00:40:29.402Z,25.60
2022-08-26T00:42:58.111Z,25.50
2022-08-26T00:45:26.875Z,25.50
2022-08-26T00:48:02.340Z,25.50
2022-08-26T00:50:37.474Z,25.50
2022-08-26T00:53:24.025Z,25.40
2022-08-26T00:55:59.634Z,25.40
2022-08-26T00:58:30.849Z,25.40
2022-08-26T01:00:59.497Z,25.30
2022-08-26T01:03:32.811Z,25.30
2022-08-26T01:06:03.800Z,25.30
2022-08-26T01:08:32.824Z,25.20
2022-08-26T01:11:02.588Z,25.20
2022-08-26T01:13:33.720Z,25.20
2022-08-26T01:16:05.907Z,25.20
2022-08-26T01:18:36.595Z,25.20
2022-08-26T01:21:14.673Z,25.10
2022-08-26T01:23:48.113Z,25.10
2022-08-26T01:26:20.220Z,25.10
2022-08-26T01:28:51.582Z,25.00
2022-08-26T01:31:24.885Z,25.00
2022-08-26T01:34:00.880Z,25.00
2022-08-26T01:36:29.510Z,25.00
2022-08-26T01:38:59.427Z,25.00
2022-08-26T01:41:29.173Z,24.90
2022-08-26T01:43:59.923Z,24.90
2022-08-26T01:46:31.275Z,24.90
2022-08-26T01:49:02.529Z,24.90
2022-08-26T01:51:32.748Z,24.80
2022-08-26T01:54:02.520Z,24.80
2022-08-26T01:56:33.339Z,24.80
2022-08-26T01:59:09.439Z,24.80
2022-08-26T02:01:39.434Z,24.80
2022-08-26T02:04:16.802Z,24.70
2022-08-26T02:06:46.090Z,24.70
2022-08-26T02:09:16.679Z,24.70
2022-08-26T02:11:45.591Z,24.60
2022-08-26T02:14:18.980Z,24.60
2022-08-26T02:16:50.308Z,24.60
2022-08-26T02:19:22.112Z,24.60
2022-08-26T02:21:53.407Z,24.60
2022-08-26T02:24:27.287Z,24.60
2022-08-26T02:26:57.677Z,24.50
2022-08-26T02:29:30.704Z,24.60
2022-08-26T02:31:59.873Z,24.60
2022-08-26T02:34:31.067Z,24.50
2022-08-26T02:37:00.778Z,24.50
2022-08-26T02:39:31.575Z,24.50
2022-08-26T02:42:00.509Z,24.50
2022-08-26T02:44:29.195Z,24.50
2022-08-26T02:46:57.531Z,24.50
2022-08-26T02:49:27.616Z,24.50
2022-08-26T02:51:56.080Z,24.50
2022-08-26T02:54:24.671Z,24.50
2022-08-26T02:56:55.594Z,24.40
2022-08-26T02:59:24.413Z,24.40
2022-08-26T03:01:55.997Z,24.40
2022-08-26T03:04:26.463Z,24.40
2022-08-26T03:06:55.599Z,24.40
2022-08-26T03:09:24.146Z,24.30
2022-08-26T03:11:55.529Z,24.40
2022-08-26T03:14:25.067Z,24.40
2022-08-26T03:16:54.834Z,24.40
2022-08-26T03:19:25.531Z,24.30
2022-08-26T03:21:57.993Z,24.30
2022-08-26T03:24:27.250Z,24.30
2022-08-26T03:26:57.074Z,24.30
2022-08-26T03:29:43.173Z,24.30
2022-08-26T03:32:11.946Z,24.30
2022-08-26T03:34:40.474Z,24.20
2022-08-26T03:37:08.956Z,24.20
2022-08-26T03:39:38.094Z,24.20
2022-08-26T03:42:08.262Z,24.20
2022-08-26T03:44:42.258Z,24.20
2022-08-26T03:47:10.862Z,24.20
2022-08-26T03:49:39.552Z,24.20
2022-08-26T03:52:08.277Z,24.20
2022-08-26T03:54:36.785Z,24.20
2022-08-26T03:57:05.505Z,24.20
2022-08-26T03:59:35.603Z,24.20
2022-08-26T04:02:11.364Z,24.20
2022-08-26T04:04:40.442Z,24.10
2022-08-26T04:07:08.832Z,24.10
2022-08-26T04:09:37.474Z,24.10
2022-08-26T04:12:06.317Z,24.10
2022-08-26T04:14:37.774Z,24.10
2022-08-26T04:17:07.656Z,24.10
2022-08-26T04:19:36.107Z,24.10
2022-08-26T04:22:04.491Z,24.10
2022-08-26T04:24:32.939Z,24.10
2022-08-26T04:27:03.651Z,24.00
2022-08-26T04:29:32.973Z,24.00
2022-08-26T04:32:03.129Z,24.10
2022-08-26T04:34:32.458Z,24.10
2022-08-26T04:37:02.236Z,24.10
2022-08-26T04:39:30.854Z,24.00
2022-08-26T04:42:00.381Z,24.10
2022-08-26T04:44:31.774Z,24.00
2022-08-26T04:47:00.219Z,24.10
2022-08-26T04:49:35.546Z,24.10
2022-08-26T04:52:05.165Z,24.10
2022-08-26T04:54:33.877Z,24.10
2022-08-26T04:57:03.664Z,24.10
2022-08-26T04:59:34.088Z,24.20
2022-08-26T05:02:06.952Z,24.20
2022-08-26T05:04:36.886Z,24.20
2022-08-26T05:07:06.329Z,24.20
2022-08-26T05:09:34.788Z,24.20
2022-08-26T05:12:03.166Z,24.30
2022-08-26T05:14:32.078Z,24.30
2022-08-26T05:17:02.922Z,24.30
2022-08-26T05:19:31.750Z,24.30
2022-08-26T05:22:02.607Z,24.40
2022-08-26T05:24:31.227Z,24.40
2022-08-26T05:26:59.553Z,24.40
2022-08-26T05:29:28.386Z,24.50
2022-08-26T05:31:56.844Z,24.50
2022-08-26T05:34:30.136Z,24.60
2022-08-26T05:36:59.251Z,24.60
2022-08-26T05:39:29.040Z,24.70
2022-08-26T05:41:57.432Z,24.70
2022-08-26T05:44:25.878Z,24.80
2022-08-26T05:46:54.340Z,24.90
2022-08-26T05:49:26.365Z,24.90
2022-08-26T05:51:54.997Z,25.00
2022-08-26T05:54:23.421Z,25.00
2022-08-26T05:56:56.262Z,25.10
2022-08-26T05:59:26.007Z,25.20
2022-08-26T06:01:55.768Z,25.20
2022-08-26T06:04:27.227Z,25.20
2022-08-26T06:06:56.468Z,25.30
2022-08-26T06:09:25.015Z,25.40
2022-08-26T06:11:56.102Z,25.50
2022-08-26T06:14:28.835Z,25.60
2022-08-26T06:16:57.715Z,25.60
2022-08-26T06:19:26.070Z,25.70
2022-08-26T06:22:23.323Z,25.80
2022-08-26T06:25:09.432Z,25.90
2022-08-26T06:27:39.809Z,26.00
2022-08-26T06:30:10.040Z,26.10
2022-08-26T06:32:38.886Z,26.10
2022-08-26T06:35:12.168Z,26.20
2022-08-26T06:37:40.845Z,26.40
2022-08-26T06:40:11.501Z,26.40
2022-08-26T06:42:41.369Z,26.50
2022-08-26T06:45:10.649Z,26.60
2022-08-26T06:47:39.556Z,26.70
2022-08-26T06:50:08.632Z,26.80
2022-08-26T06:52:37.009Z,26.80
2022-08-26T06:55:06.068Z,26.90
2022-08-26T06:57:37.731Z,27.10
2022-08-26T07:00:12.625Z,27.20
2022-08-26T07:02:41.063Z,27.30
2022-08-26T07:05:15.562Z,27.30
2022-08-26T07:07:44.113Z,27.40
2022-08-26T07:10:12.473Z,27.50
2022-08-26T07:12:40.882Z,27.70
2022-08-26T07:15:12.267Z,27.70
2022-08-26T07:17:40.666Z,27.80
2022-08-26T07:20:10.081Z,27.90
2022-08-26T07:22:38.788Z,27.90
2022-08-26T07:25:09.412Z,28.00
2022-08-26T07:27:38.777Z,28.10
2022-08-26T07:30:08.973Z,28.20
2022-08-26T07:32:38.756Z,28.30
2022-08-26T07:35:08.371Z,28.40
2022-08-26T07:37:39.245Z,28.50
2022-08-26T07:40:09.567Z,28.50
2022-08-26T07:42:37.911Z,28.60
2022-08-26T07:45:07.318Z,28.70
2022-08-26T07:47:35.746Z,28.80
2022-08-26T07:50:06.262Z,28.90
2022-08-26T07:52:35.432Z,29.00
2022-08-26T07:55:07.058Z,29.00
2022-08-26T07:57:35.786Z,29.10
2022-08-26T08:00:11.479Z,29.20
2022-08-26T08:02:40.209Z,29.30
2022-08-26T08:05:10.588Z,29.30
2022-08-26T08:07:44.880Z,29.40
2022-08-26T08:10:15.817Z,29.50
2022-08-26T08:12:44.504Z,29.50
2022-08-26T08:15:14.030Z,29.60
2022-08-26T08:17:43.845Z,29.70
2022-08-26T08:20:15.901Z,29.70
2022-08-26T08:22:44.592Z,29.80
2022-08-26T08:25:14.006Z,29.90
2022-08-26T08:27:45.190Z,29.90
2022-08-26T08:30:14.535Z,30.00
2022-08-26T08:32:44.454Z,30.10
2022-08-26T08:35:16.999Z,30.10
2022-08-26T08:37:46.219Z,30.20
2022-08-26T08:40:18.514Z,30.20
2022-08-26T08:45:36.275Z,30.30
2022-08-26T08:48:08.094Z,30.40
2022-08-26T08:50:44.821Z,30.50
2022-08-26T08:53:18.825Z,30.50
2022-08-26T08:56:02.307Z,30.60
2022-08-26T08:58:45.137Z,30.60
2022-08-26T09:01:23.033Z,30.70
2022-08-26T09:04:03.676Z,30.70
2022-08-26T09:06:33.550Z,30.80
2022-08-26T09:09:04.569Z,30.80
2022-08-26T09:11:36.275Z,30.90
2022-08-26T09:14:04.789Z,30.90
2022-08-26T09:16:42.611Z,30.90
2022-08-26T09:19:19.322Z,31.00
2022-08-26T09:21:56.886Z,31.10
2022-08-26T09:24:28.634Z,31.10
2022-08-26T09:26:59.197Z,31.10
2022-08-26T09:29:29.927Z,31.20
2022-08-26T09:32:16.299Z,31.20
2022-08-26T09:34:56.222Z,31.30
2022-08-26T09:37:38.056Z,31.30
2022-08-26T09:40:27.981Z,31.40
2022-08-26T09:43:22.428Z,31.40
2022-08-26T09:45:59.228Z,31.50
2022-08-26T09:48:31.939Z,31.50
2022-08-26T09:51:08.213Z,31.60
2022-08-26T09:53:52.608Z,31.60
2022-08-26T09:56:27.892Z,31.70
2022-08-26T09:58:57.839Z,31.80
2022-08-26T10:01:34.987Z,31.70
2022-08-26T10:04:07.953Z,31.80
2022-08-26T10:06:41.342Z,31.80
2022-08-26T10:09:15.306Z,31.90
2022-08-26T10:11:48.069Z,31.90
2022-08-26T10:14:22.548Z,32.00
2022-08-26T10:16:57.103Z,32.00
2022-08-26T10:19:41.588Z,32.00
2022-08-26T10:22:26.965Z,32.10
2022-08-26T10:25:03.497Z,32.10
2022-08-26T10:27:51.218Z,32.20
2022-08-26T10:30:23.798Z,32.20
2022-08-26T10:33:08.373Z,32.30
2022-08-26T10:35:42.267Z,32.30
2022-08-26T10:38:16.839Z,32.40
2022-08-26T10:40:56.270Z,32.40
2022-08-26T10:43:29.702Z,32.50
2022-08-26T10:46:04.740Z,32.50
2022-08-26T10:48:42.799Z,32.60
2022-08-26T10:51:13.978Z,32.60
2022-08-26T10:53:51.554Z,32.60
2022-08-26T10:56:34.148Z,32.70
2022-08-26T10:59:12.565Z,32.70
2022-08-26T11:01:51.010Z,32.70
2022-08-26T11:04:35.475Z,32.80
2022-08-26T11:07:31.849Z,32.80
2022-08-26T11:10:01.630Z,32.90
2022-08-26T11:12:56.481Z,32.90
2022-08-26T11:16:08.671Z,32.90
2022-08-26T11:18:45.702Z,33.00
2022-08-26T11:22:02.602Z,33.00
2022-08-26T11:25:00.609Z,33.00
2022-08-26T11:27:59.763Z,33.00
2022-08-26T11:30:56.940Z,33.00
2022-08-26T11:33:59.833Z,33.10
2022-08-26T11:36:52.792Z,33.20
2022-08-26T11:39:25.497Z,33.20
2022-08-26T11:41:55.899Z,33.20
2022-08-26T11:44:37.388Z,33.30
2022-08-26T11:47:11.489Z,33.30
2022-08-26T11:49:40.300Z,33.40
2022-08-26T11:52:20.740Z,33.40
2022-08-26T11:55:03.760Z,33.50
2022-08-26T11:57:34.892Z,33.50
2022-08-26T12:00:08.404Z,33.60
2022-08-26T12:02:41.856Z,33.70
2022-08-26T12:05:10.449Z,33.60
2022-08-26T12:07:39.868Z,33.70
2022-08-26T12:10:24.079Z,33.70
2022-08-26T12:12:59.759Z,33.70
2022-08-26T12:15:30.985Z,33.80
2022-08-26T12:18:00.516Z,33.80
2022-08-26T12:20:46.134Z,33.80
2022-08-26T12:23:25.628Z,33.80
2022-08-26T12:26:04.237Z,33.80
2022-08-26T12:28:33.213Z,33.80
2022-08-26T12:31:05.738Z,33.70
2022-08-26T12:33:36.046Z,33.80
2022-08-26T12:36:05.297Z,33.80
2022-08-26T12:38:37.513Z,33.80
2022-08-26T12:41:06.421Z,33.80
2022-08-26T12:43:40.870Z,33.80
2022-08-26T12:46:12.916Z,33.80
2022-08-26T12:48:45.881Z,33.80
2022-08-26T12:51:26.892Z,33.80
2022-08-26T12:53:56.355Z,33.80
2022-08-26T12:56:34.469Z,33.90
2022-08-26T12:59:12.198Z,33.90
2022-08-26T13:01:48.276Z,33.90
2022-08-26T13:04:36.588Z,33.90
2022-08-26T13:07:23.389Z,33.90
2022-08-26T13:09:53.222Z,33.90
2022-08-26T13:12:27.071Z,33.90
2022-08-26T13:14:55.774Z,34.00
2022-08-26T13:17:25.662Z,34.00
2022-08-26T13:19:53.984Z,34.00
2022-08-26T13:22:25.385Z,34.00
2022-08-26T13:24:56.408Z,34.00
2022-08-26T13:27:27.381Z,34.10
2022-08-26T13:29:57.446Z,34.10
2022-08-26T13:32:27.815Z,34.10
2022-08-26T13:34:57.635Z,34.10
2022-08-26T13:37:34.980Z,34.10
2022-08-26T13:40:04.841Z,34.10
2022-08-26T13:42:33.320Z,34.10
2022-08-26T13:45:03.158Z,34.10
2022-08-26T13:47:33.029Z,34.10
2022-08-26T13:50:01.464Z,34.10
2022-08-26T13:52:31.143Z,34.10
2022-08-26T13:55:00.855Z,34.10
2022-08-26T13:57:30.203Z,34.10
2022-08-26T14:00:00.286Z,34.10
2022-08-26T14:02:34.573Z,34.10
2022-08-26T14:05:04.667Z,34.10
2022-08-26T14:07:33.313Z,34.30
2022-08-26T14:10:01.747Z,34.30
2022-08-26T14:12:30.539Z,34.30
2022-08-26T14:14:58.982Z,34.30
2022-08-26T14:17:27.778Z,34.30
2022-08-26T14:19:59.327Z,34.30
2022-08-26T14:22:29.648Z,34.20
2022-08-26T14:24:58.089Z,34.30
2022-08-26T14:27:26.600Z,34.20
2022-08-26T14:29:55.264Z,34.20
2022-08-26T14:32:26.775Z,34.10
2022-08-26T14:34:55.822Z,34.10
2022-08-26T14:37:24.249Z,34.10
2022-08-26T14:39:54.181Z,34.10
2022-08-26T14:42:26.532Z,34.10
2022-08-26T14:45:02.928Z,34.20
2022-08-26T14:47:31.467Z,34.20
2022-08-26T14:49:59.960Z,34.30
2022-08-26T14:52:28.501Z,34.40
2022-08-26T14:54:57.295Z,34.50
2022-08-26T14:57:25.658Z,34.60
2022-08-26T14:59:54.063Z,34.60
2022-08-26T15:02:32.535Z,34.50
2022-08-26T15:05:02.277Z,34.50
2022-08-26T15:07:30.824Z,34.40
2022-08-26T15:10:00.633Z,34.30
2022-08-26T15:12:29.313Z,34.20
2022-08-26T15:14:57.726Z,34.10
2022-08-26T15:17:26.478Z,34.00
2022-08-26T15:20:05.716Z,33.90
2022-08-26T15:22:34.272Z,33.90
2022-08-26T15:25:05.451Z,33.80
2022-08-26T15:27:33.942Z,33.80
2022-08-26T15:30:03.250Z,33.80
2022-08-26T15:32:32.251Z,33.70
2022-08-26T15:35:02.033Z,33.60
2022-08-26T15:37:32.629Z,33.60
2022-08-26T15:40:02.201Z,33.60
2022-08-26T15:42:32.284Z,33.50
2022-08-26T15:45:00.908Z,33.50
2022-08-26T15:47:29.313Z,33.40
2022-08-26T15:49:58.567Z,33.40
2022-08-26T15:52:28.782Z,33.30
2022-08-26T15:54:57.346Z,33.30
2022-08-26T15:57:25.807Z,33.30
2022-08-26T15:59:56.739Z,33.20
2022-08-26T16:02:27.248Z,33.10
2022-08-26T16:04:57.623Z,33.10
2022-08-26T16:07:28.430Z,33.10
2022-08-26T16:09:57.489Z,33.00
2022-08-26T16:12:26.159Z,32.90
2022-08-26T16:14:54.712Z,32.90
2022-08-26T16:17:24.563Z,32.80
2022-08-26T16:19:53.001Z,32.80
2022-08-26T16:22:21.468Z,32.70
2022-08-26T16:24:50.523Z,32.60
2022-08-26T16:27:18.988Z,32.60
2022-08-26T16:29:51.436Z,32.50
2022-08-26T16:32:20.119Z,32.50
2022-08-26T16:34:56.886Z,32.40
2022-08-26T16:37:25.567Z,32.40
2022-08-26T16:39:54.009Z,32.30
2022-08-26T16:42:23.112Z,32.30
2022-08-26T16:44:55.399Z,32.30
2022-08-26T16:47:24.438Z,32.20
2022-08-26T16:49:54.369Z,32.20
2022-08-26T16:52:22.967Z,32.10
2022-08-26T16:54:53.373Z,32.10
2022-08-26T16:57:22.643Z,32.00
2022-08-26T16:59:51.212Z,31.90
2022-08-26T17:02:20.115Z,31.80
2022-08-26T17:04:50.281Z,31.80
2022-08-26T17:07:20.628Z,31.80
2022-08-26T17:09:49.835Z,31.70
2022-08-26T17:12:18.867Z,31.60
2022-08-26T17:14:47.283Z,31.60
2022-08-26T17:17:15.920Z,31.50
2022-08-26T17:19:46.923Z,31.50
2022-08-26T17:22:16.556Z,31.40
2022-08-26T17:24:46.410Z,31.40
2022-08-26T17:27:14.769Z,31.30
2022-08-26T17:29:43.190Z,31.30
2022-08-26T17:32:11.748Z,31.20
2022-08-26T17:34:40.274Z,31.20
2022-08-26T17:37:08.679Z,31.10
2022-08-26T17:39:42.576Z,31.00
2022-08-26T17:42:13.509Z,31.00
2022-08-26T17:44:42.098Z,30.90
2022-08-26T17:47:10.687Z,30.80
2022-08-26T17:49:39.132Z,30.80
2022-08-26T17:52:11.473Z,30.80
2022-08-26T17:54:40.157Z,30.70
2022-08-26T17:57:10.614Z,30.70
2022-08-26T17:59:41.374Z,30.60
2022-08-26T18:02:09.754Z,30.60
2022-08-26T18:04:38.193Z,30.50
2022-08-26T18:07:07.623Z,30.50
2022-08-26T18:09:36.041Z,30.50
2022-08-26T18:12:04.985Z,30.40
2022-08-26T18:14:34.203Z,30.40
2022-08-26T18:17:04.916Z,30.40
2022-08-26T18:19:33.356Z,30.30
2022-08-26T18:22:01.773Z,30.30
2022-08-26T18:24:32.301Z,30.20
2022-08-26T18:27:00.834Z,30.20
2022-08-26T18:29:29.405Z,30.20
2022-08-26T18:31:57.836Z,30.10
2022-08-26T18:34:31.681Z,30.10
2022-08-26T18:37:00.477Z,30.10
2022-08-26T18:39:28.962Z,30.00
2022-08-26T18:41:57.352Z,30.00
2022-08-26T18:44:26.102Z,29.90
2022-08-26T18:46:54.690Z,29.90
2022-08-26T18:49:23.475Z,29.90
2022-08-26T18:51:53.508Z,29.90
2022-08-26T18:54:22.667Z,29.80
2022-08-26T18:56:51.853Z,29.80
2022-08-26T18:59:20.592Z,29.80
2022-08-26T19:01:58.749Z,29.70
2022-08-26T19:04:27.584Z,29.70
2022-08-26T19:06:57.580Z,29.70
2022-08-26T19:09:27.262Z,29.60
2022-08-26T19:14:31.213Z,29.50
2022-08-26T19:17:00.575Z,29.50
2022-08-26T19:19:29.373Z,29.50
2022-08-26T19:21:59.387Z,29.40
2022-08-26T19:24:28.372Z,29.40
2022-08-26T19:26:58.667Z,29.40
2022-08-26T19:29:30.454Z,29.30
2022-08-26T19:31:59.258Z,29.30
2022-08-26T19:34:27.959Z,29.30
2022-08-26T19:36:58.395Z,29.20
2022-08-26T19:39:28.599Z,29.20
2022-08-26T19:41:57.471Z,29.20
2022-08-26T19:44:43.602Z,29.10
2022-08-26T19:47:16.514Z,29.10
2022-08-26T19:49:45.843Z,29.00
2022-08-26T19:52:14.710Z,29.00
2022-08-26T19:54:44.548Z,29.00
2022-08-26T19:57:13.124Z,29.00
2022-08-26T19:59:41.875Z,28.90
2022-08-26T20:02:11.296Z,28.90
2022-08-26T20:04:40.923Z,28.80
2022-08-26T20:07:10.435Z,28.80
2022-08-26T20:09:40.120Z,28.70
2022-08-26T20:12:10.408Z,28.70
2022-08-26T20:14:39.180Z,28.70
2022-08-26T20:17:08.051Z,28.70
2022-08-26T20:19:53.901Z,28.60
2022-08-26T20:22:23.199Z,28.60
2022-08-26T20:24:52.288Z,28.50
2022-08-26T20:27:27.622Z,28.50
2022-08-26T20:30:07.900Z,28.40
2022-08-26T20:32:36.674Z,28.40
2022-08-26T20:35:06.659Z,28.40
2022-08-26T20:37:36.052Z,28.40
2022-08-26T20:40:05.664Z,28.30
2022-08-26T20:42:35.648Z,28.30
2022-08-26T20:45:04.543Z,28.30
2022-08-26T20:47:33.643Z,28.20
2022-08-26T20:50:02.587Z,28.20
2022-08-26T20:52:31.184Z,28.10
2022-08-26T20:54:59.613Z,28.10
2022-08-26T20:57:28.104Z,28.00
2022-08-26T20:59:57.987Z,28.00
2022-08-26T21:02:26.626Z,28.00
2022-08-26T21:04:55.090Z,27.90
2022-08-26T21:07:23.535Z,27.90
2022-08-26T21:09:51.965Z,27.80
2022-08-26T21:12:20.444Z,27.80
2022-08-26T21:14:49.778Z,27.80
2022-08-26T21:17:19.722Z,27.70
2022-08-26T21:19:48.331Z,27.70
2022-08-26T21:22:17.507Z,27.70
2022-08-26T21:24:45.914Z,27.70
2022-08-26T21:27:17.674Z,27.60
2022-08-26T21:29:52.012Z,27.60
2022-08-26T21:32:22.155Z,27.60
2022-08-26T21:34:50.590Z,27.50
2022-08-26T21:37:19.039Z,27.50
2022-08-26T21:39:47.467Z,27.40
2022-08-26T21:42:15.985Z,27.40
2022-08-26T21:44:48.981Z,27.30
2022-08-26T21:47:22.920Z,27.30
2022-08-26T21:49:51.482Z,27.30
2022-08-26T21:52:19.915Z,27.20
2022-08-26T21:54:49.459Z,27.20
2022-08-26T21:57:18.490Z,27.10
2022-08-26T21:59:46.880Z,27.10
2022-08-26T22:02:15.824Z,27.10
2022-08-26T22:04:48.667Z,27.10
2022-08-26T22:07:19.199Z,27.00
2022-08-26T22:09:48.710Z,27.00
2022-08-26T22:12:18.518Z,27.00
2022-08-26T22:14:47.168Z,26.90
2022-08-26T22:17:15.987Z,26.90
2022-08-26T22:19:46.717Z,26.90
2022-08-26T22:22:16.007Z,26.90
2022-08-26T22:24:44.478Z,26.80
2022-08-26T22:27:13.712Z,26.80
2022-08-26T22:29:42.196Z,26.80
2022-08-26T22:32:11.305Z,26.70
2022-08-26T22:34:39.883Z,26.70
2022-08-26T22:37:09.737Z,26.70
2022-08-26T22:39:38.457Z,26.70
2022-08-26T22:42:07.233Z,26.70
2022-08-26T22:44:37.031Z,26.70
2022-08-26T22:47:05.694Z,26.70
2022-08-26T22:49:34.139Z,26.70
2022-08-26T22:52:02.821Z,26.60
2022-08-26T22:54:32.917Z,26.60
2022-08-26T22:57:01.303Z,26.60
2022-08-26T22:59:29.827Z,26.60
2022-08-26T23:01:58.276Z,26.50
2022-08-26T23:04:26.602Z,26.50
2022-08-26T23:06:54.952Z,26.50
2022-08-26T23:09:23.538Z,26.50
2022-08-26T23:11:55.007Z,26.50
2022-08-26T23:14:24.676Z,26.40
2022-08-26T23:16:53.807Z,26.40
2022-08-26T23:19:23.499Z,26.40
2022-08-26T23:21:52.354Z,26.40
2022-08-26T23:24:21.026Z,26.30
2022-08-26T23:26:49.540Z,26.30
2022-08-26T23:29:19.419Z,26.30
2022-08-26T23:31:48.053Z,26.30
2022-08-26T23:34:33.819Z,26.30
2022-08-26T23:37:03.261Z,26.20
2022-08-26T23:39:34.850Z,26.20
2022-08-26T23:42:03.577Z,26.10
2022-08-26T23:44:33.775Z,26.10
2022-08-26T23:47:02.211Z,26.10
2022-08-26T23:49:30.813Z,26.10
2022-08-26T23:52:17.240Z,26.00
2022-08-26T23:54:49.035Z,26.00
2022-08-26T23:57:18.073Z,25.90
2022-08-26T23:59:48.633Z,25.80
